Date,TemperatureHighF,TemperatureAvgF,TemperatureLowF,DewpointHighF,DewpointAvgF,DewpointLowF,HumidityHigh,HumidityAvg,HumidityLow,PressureMaxIn,PressureMinIn,WindSpeedMaxMPH,WindSpeedAvgMPH,GustSpeedMaxMPH,PrecipitationSumIn
2013-11-1,75.0,63.6,45.9,60.7,53.2,44.1,94,71,40,29.81,29.67,13,3,22,0.28
2013-11-2,65.1,48.0,37.0,53.8,39.8,35.1,99,77,36,30.04,29.79,15,2,22,0.00
2013-11-3,61.3,41.1,30.2,46.3,33.9,29.2,99,78,41,30.32,30.04,8,1,12,0.00
2013-11-4,66.9,44.6,28.9,38.9,32.5,27.4,96,68,28,30.42,30.31,8,1,13,0.00
2013-11-5,69.6,48.2,36.0,42.2,34.6,31.0,89,63,27,30.45,30.32,8,1,11,0.00
2013-11-6,78.4,54.7,35.2,56.3,45.0,32.1,98,74,39,30.34,30.07,12,1,18,0.00
2013-11-7,57.6,50.2,34.2,54.5,43.1,27.7,95,77,52,30.22,30.01,13,2,20,0.25
2013-11-8,55.9,36.5,24.3,38.0,25.8,21.3,93,70,31,30.33,30.22,11,1,19,0.14
2013-11-9,58.5,38.7,24.3,36.2,27.5,21.4,93,69,33,30.28,30.17,9,1,14,0.00
2013-11-10,66.0,43.8,27.5,43.7,30.6,23.9,97,65,26,30.29,30.16,13,2,20,0.00
2013-11-11,68.2,41.9,23.5,36.6,26.3,20.3,89,61,19,30.30,30.13,7,1,9,0.06
2013-11-12,49.1,35.7,27.1,39.3,26.9,16.2,81,70,57,30.48,30.08,15,3,20,0.05
2013-11-13,47.3,29.7,18.5,22.7,17.1,12.0,83,61,31,30.55,30.40,10,1,14,0.08
2013-11-14,61.7,35.6,16.5,29.4,20.1,12.3,88,60,23,30.43,30.25,8,1,10,0.00
2013-11-15,57.2,39.4,22.5,46.6,31.7,18.0,98,77,32,30.28,27.97,6,0,8,0.17
2013-11-16,75.9,52.1,39.0,55.4,47.2,38.8,99,86,46,30.20,30.09,4,0,7,0.00
2013-11-17,72.9,55.5,42.4,58.8,51.6,42.2,99,88,53,30.12,29.83,11,1,16,0.17
2013-11-18,65.8,55.7,38.7,59.5,42.9,27.3,99,66,31,30.10,29.83,12,2,21,0.11
2013-11-19,56.7,41.4,28.6,32.1,27.5,23.4,85,59,32,30.21,30.10,10,1,14,0.00
2013-11-20,61.7,42.0,29.7,31.2,27.6,24.6,84,60,26,30.32,30.18,9,2,14,0.00
2013-11-21,73.2,50.0,30.7,51.3,40.4,25.9,94,72,42,30.38,30.25,10,2,14,0.00
2013-11-22,61.0,53.6,48.4,53.8,51.1,46.0,97,91,74,30.30,30.15,7,0,11,0.24
2013-11-23,54.9,45.3,29.8,53.0,33.7,10.2,97,66,24,30.30,30.15,13,2,17,0.01
2013-11-24,36.9,26.2,18.5,15.1,6.8,-3.2,63,45,24,30.50,30.29,13,2,20,0.00
2013-11-25,42.4,30.6,18.0,29.0,13.3,5.6,84,50,27,30.42,30.15,8,0,11,0.02
2013-11-26,47.1,41.1,33.3,46.1,39.6,28.7,98,94,83,30.16,29.68,10,1,12,1.62
2013-11-27,38.7,30.4,24.3,36.5,23.2,11.8,93,75,55,30.21,29.70,11,1,17,0.05
2013-11-28,44.8,26.1,14.0,24.2,15.9,8.2,86,67,38,30.42,30.20,5,0,7,0.12
2013-11-29,53.1,29.8,15.8,31.0,20.5,11.3,88,72,35,30.52,30.41,4,0,6,0.00
2013-11-30,61.0,35.4,23.0,34.2,25.0,18.9,90,69,30,30.47,30.26,10,1,14,0.00